sensor_id;sensor_type;location;lat;lon;timestamp;P1;durP1;ratioP1;P2;durP2;ratioP2
27804;SDS011;15183;51.350;11.102;2022-09-17T00:01:14;2.38;;;0.55;;
27804;SDS011;15183;51.350;11.102;2022-09-17T00:03:47;1.67;;;0.63;;
27804;SDS011;15183;51.350;11.102;2022-09-17T00:06:19;1.50;;;0.45;;
27804;SDS011;15183;51.350;11.102;2022-09-17T00:08:47;0.95;;;0.50;;
27804;SDS011;15183;51.350;11.102;2022-09-17T00:11:16;2.05;;;0.60;;
27804;SDS011;15183;51.350;11.102;2022-09-17T00:13:52;2.42;;;0.60;;
27804;SDS011;15183;51.350;11.102;2022-09-17T00:18:55;1.60;;;0.40;;
27804;SDS011;15183;51.350;11.102;2022-09-17T00:21:22;2.58;;;0.50;;
27804;SDS011;15183;51.350;11.102;2022-09-17T00:23:53;1.27;;;0.40;;
27804;SDS011;15183;51.350;11.102;2022-09-17T00:26:25;3.60;;;0.50;;
27804;SDS011;15183;51.350;11.102;2022-09-17T00:28:53;1.48;;;0.50;;
27804;SDS011;15183;51.350;11.102;2022-09-17T00:31:21;1.77;;;0.30;;
27804;SDS011;15183;51.350;11.102;2022-09-17T00:33:49;2.20;;;0.45;;
27804;SDS011;15183;51.350;11.102;2022-09-17T00:36:16;0.45;;;0.32;;
27804;SDS011;15183;51.350;11.102;2022-09-17T00:38:51;0.70;;;0.43;;
27804;SDS011;15183;51.350;11.102;2022-09-17T00:43:54;0.65;;;0.30;;
27804;SDS011;15183;51.350;11.102;2022-09-17T00:46:24;1.55;;;0.32;;
27804;SDS011;15183;51.350;11.102;2022-09-17T00:52:06;0.60;;;0.30;;
27804;SDS011;15183;51.350;11.102;2022-09-17T00:54:37;0.88;;;0.20;;
27804;SDS011;15183;51.350;11.102;2022-09-17T00:57:07;2.25;;;0.30;;
27804;SDS011;15183;51.350;11.102;2022-09-17T00:59:33;1.40;;;0.40;;
27804;SDS011;15183;51.350;11.102;2022-09-17T01:02:00;0.75;;;0.32;;
27804;SDS011;15183;51.350;11.102;2022-09-17T01:04:28;0.98;;;0.30;;
27804;SDS011;15183;51.350;11.102;2022-09-17T01:07:08;1.27;;;0.45;;
27804;SDS011;15183;51.350;11.102;2022-09-17T01:09:52;0.22;;;0.22;;
27804;SDS011;15183;51.350;11.102;2022-09-17T01:27:34;0.40;;;0.28;;
27804;SDS011;15183;51.350;11.102;2022-09-17T01:33:44;0.90;;;0.30;;
27804;SDS011;15183;51.350;11.102;2022-09-17T01:36:34;4.07;;;0.35;;
27804;SDS011;15183;51.350;11.102;2022-09-17T01:45:11;3.03;;;0.30;;
27804;SDS011;15183;51.350;11.102;2022-09-17T01:48:06;0.20;;;0.20;;
27804;SDS011;15183;51.350;11.102;2022-09-17T01:50:49;0.32;;;0.20;;
27804;SDS011;15183;51.350;11.102;2022-09-17T01:53:30;0.35;;;0.30;;
27804;SDS011;15183;51.350;11.102;2022-09-17T01:56:24;0.82;;;0.40;;
27804;SDS011;15183;51.350;11.102;2022-09-17T01:58:59;1.25;;;0.35;;
27804;SDS011;15183;51.350;11.102;2022-09-17T02:01:48;0.20;;;0.20;;
27804;SDS011;15183;51.350;11.102;2022-09-17T02:04:32;0.60;;;0.20;;
27804;SDS011;15183;51.350;11.102;2022-09-17T02:07:08;0.85;;;0.20;;
27804;SDS011;15183;51.350;11.102;2022-09-17T02:09:47;0.28;;;0.20;;
27804;SDS011;15183;51.350;11.102;2022-09-17T02:12:27;1.02;;;0.30;;
27804;SDS011;15183;51.350;11.102;2022-09-17T02:15:01;1.27;;;0.20;;
27804;SDS011;15183;51.350;11.102;2022-09-17T02:17:41;0.30;;;0.25;;
27804;SDS011;15183;51.350;11.102;2022-09-17T02:20:17;0.20;;;0.20;;
27804;SDS011;15183;51.350;11.102;2022-09-17T02:22:49;0.30;;;0.30;;
27804;SDS011;15183;51.350;11.102;2022-09-17T02:25:27;0.50;;;0.30;;
27804;SDS011;15183;51.350;11.102;2022-09-17T02:28:16;0.20;;;0.20;;
27804;SDS011;15183;51.350;11.102;2022-09-17T02:30:56;1.02;;;0.20;;
27804;SDS011;15183;51.350;11.102;2022-09-17T02:33:22;0.30;;;0.13;;
27804;SDS011;15183;51.350;11.102;2022-09-17T02:35:50;0.28;;;0.20;;
27804;SDS011;15183;51.350;11.102;2022-09-17T02:38:20;0.20;;;0.20;;
27804;SDS011;15183;51.350;11.102;2022-09-17T02:40:51;0.40;;;0.20;;
27804;SDS011;15183;51.350;11.102;2022-09-17T02:43:33;0.28;;;0.20;;
27804;SDS011;15183;51.350;11.102;2022-09-17T02:49:23;0.15;;;0.15;;
27804;SDS011;15183;51.350;11.102;2022-09-17T02:52:28;0.20;;;0.20;;
27804;SDS011;15183;51.350;11.102;2022-09-17T02:55:40;0.20;;;0.20;;
27804;SDS011;15183;51.350;11.102;2022-09-17T02:58:32;0.30;;;0.20;;
27804;SDS011;15183;51.350;11.102;2022-09-17T03:01:20;0.40;;;0.25;;
27804;SDS011;15183;51.350;11.102;2022-09-17T03:04:04;0.15;;;0.15;;
27804;SDS011;15183;51.350;11.102;2022-09-17T03:06:37;0.50;;;0.20;;
27804;SDS011;15183;51.350;11.102;2022-09-17T03:09:05;0.10;;;0.10;;
27804;SDS011;15183;51.350;11.102;2022-09-17T03:11:31;0.70;;;0.20;;
27804;SDS011;15183;51.350;11.102;2022-09-17T03:13:58;1.67;;;0.30;;
27804;SDS011;15183;51.350;11.102;2022-09-17T03:16:24;1.65;;;0.30;;
27804;SDS011;15183;51.350;11.102;2022-09-17T03:18:51;1.20;;;0.40;;
27804;SDS011;15183;51.350;11.102;2022-09-17T03:21:17;1.38;;;0.50;;
27804;SDS011;15183;51.350;11.102;2022-09-17T03:23:45;0.88;;;0.30;;
27804;SDS011;15183;51.350;11.102;2022-09-17T03:26:11;1.05;;;0.30;;
27804;SDS011;15183;51.350;11.102;2022-09-17T03:28:38;2.03;;;0.50;;
27804;SDS011;15183;51.350;11.102;2022-09-17T03:31:04;2.00;;;0.40;;
27804;SDS011;15183;51.350;11.102;2022-09-17T03:33:31;1.85;;;0.40;;
27804;SDS011;15183;51.350;11.102;2022-09-17T03:35:58;2.50;;;0.70;;
27804;SDS011;15183;51.350;11.102;2022-09-17T03:38:24;1.45;;;0.50;;
27804;SDS011;15183;51.350;11.102;2022-09-17T03:41:01;2.25;;;0.60;;
27804;SDS011;15183;51.350;11.102;2022-09-17T03:43:32;3.45;;;0.70;;
27804;SDS011;15183;51.350;11.102;2022-09-17T03:45:59;3.72;;;0.60;;
27804;SDS011;15183;51.350;11.102;2022-09-17T03:48:25;3.03;;;0.75;;
27804;SDS011;15183;51.350;11.102;2022-09-17T03:50:52;3.47;;;0.65;;
27804;SDS011;15183;51.350;11.102;2022-09-17T03:53:18;1.48;;;0.82;;
27804;SDS011;15183;51.350;11.102;2022-09-17T03:55:45;6.90;;;0.60;;
27804;SDS011;15183;51.350;11.102;2022-09-17T03:58:11;2.85;;;0.60;;
27804;SDS011;15183;51.350;11.102;2022-09-17T04:00:38;3.60;;;0.98;;
27804;SDS011;15183;51.350;11.102;2022-09-17T04:03:05;2.58;;;0.60;;
27804;SDS011;15183;51.350;11.102;2022-09-17T04:05:31;3.85;;;0.63;;
27804;SDS011;15183;51.350;11.102;2022-09-17T04:07:58;2.92;;;0.70;;
27804;SDS011;15183;51.350;11.102;2022-09-17T04:10:24;3.80;;;0.75;;
27804;SDS011;15183;51.350;11.102;2022-09-17T04:12:51;5.28;;;1.00;;
27804;SDS011;15183;51.350;11.102;2022-09-17T04:15:17;3.15;;;0.60;;
27804;SDS011;15183;51.350;11.102;2022-09-17T04:17:44;7.03;;;1.00;;
27804;SDS011;15183;51.350;11.102;2022-09-17T04:20:10;3.92;;;0.70;;
27804;SDS011;15183;51.350;11.102;2022-09-17T04:22:37;3.67;;;0.70;;
27804;SDS011;15183;51.350;11.102;2022-09-17T04:25:03;5.82;;;0.98;;
27804;SDS011;15183;51.350;11.102;2022-09-17T04:27:30;4.40;;;0.88;;
27804;SDS011;15183;51.350;11.102;2022-09-17T04:29:56;6.85;;;0.90;;
27804;SDS011;15183;51.350;11.102;2022-09-17T04:32:23;5.53;;;0.90;;
27804;SDS011;15183;51.350;11.102;2022-09-17T04:34:49;11.50;;;0.98;;
27804;SDS011;15183;51.350;11.102;2022-09-17T04:37:16;1.92;;;0.68;;
27804;SDS011;15183;51.350;11.102;2022-09-17T04:39:42;5.20;;;0.90;;
27804;SDS011;15183;51.350;11.102;2022-09-17T04:42:08;4.20;;;1.13;;
27804;SDS011;15183;51.350;11.102;2022-09-17T04:44:35;3.78;;;0.75;;
27804;SDS011;15183;51.350;11.102;2022-09-17T04:47:01;6.80;;;1.10;;
27804;SDS011;15183;51.350;11.102;2022-09-17T04:49:28;3.05;;;0.90;;
27804;SDS011;15183;51.350;11.102;2022-09-17T04:51:55;6.45;;;0.70;;
27804;SDS011;15183;51.350;11.102;2022-09-17T04:54:22;3.90;;;0.85;;
27804;SDS011;15183;51.350;11.102;2022-09-17T04:56:49;4.15;;;0.82;;
27804;SDS011;15183;51.350;11.102;2022-09-17T04:59:15;4.47;;;0.85;;
27804;SDS011;15183;51.350;11.102;2022-09-17T05:01:42;4.38;;;1.00;;
27804;SDS011;15183;51.350;11.102;2022-09-17T05:04:09;4.00;;;0.70;;
27804;SDS011;15183;51.350;11.102;2022-09-17T05:06:35;7.13;;;1.20;;
27804;SDS011;15183;51.350;11.102;2022-09-17T05:09:02;4.38;;;0.90;;
27804;SDS011;15183;51.350;11.102;2022-09-17T05:11:28;6.88;;;1.38;;
27804;SDS011;15183;51.350;11.102;2022-09-17T05:13:55;5.60;;;0.90;;
27804;SDS011;15183;51.350;11.102;2022-09-17T05:16:21;6.32;;;0.90;;
27804;SDS011;15183;51.350;11.102;2022-09-17T05:18:47;6.13;;;0.93;;
27804;SDS011;15183;51.350;11.102;2022-09-17T05:21:16;2.45;;;0.88;;
27804;SDS011;15183;51.350;11.102;2022-09-17T05:23:43;8.40;;;1.05;;
27804;SDS011;15183;51.350;11.102;2022-09-17T05:26:10;6.88;;;0.85;;
27804;SDS011;15183;51.350;11.102;2022-09-17T05:28:36;6.70;;;1.05;;
27804;SDS011;15183;51.350;11.102;2022-09-17T05:31:03;7.13;;;0.90;;
27804;SDS011;15183;51.350;11.102;2022-09-17T05:33:29;7.82;;;1.17;;
27804;SDS011;15183;51.350;11.102;2022-09-17T05:35:56;5.50;;;1.52;;
27804;SDS011;15183;51.350;11.102;2022-09-17T05:38:22;9.55;;;1.63;;
27804;SDS011;15183;51.350;11.102;2022-09-17T05:40:49;7.32;;;1.30;;
27804;SDS011;15183;51.350;11.102;2022-09-17T05:43:15;9.57;;;1.70;;
27804;SDS011;15183;51.350;11.102;2022-09-17T05:45:42;4.75;;;1.52;;
27804;SDS011;15183;51.350;11.102;2022-09-17T05:48:12;9.13;;;2.90;;
27804;SDS011;15183;51.350;11.102;2022-09-17T05:50:40;8.55;;;1.58;;
27804;SDS011;15183;51.350;11.102;2022-09-17T05:53:07;8.57;;;1.65;;
27804;SDS011;15183;51.350;11.102;2022-09-17T05:55:37;7.68;;;2.38;;
27804;SDS011;15183;51.350;11.102;2022-09-17T05:58:10;11.57;;;2.10;;
27804;SDS011;15183;51.350;11.102;2022-09-17T06:00:39;3.92;;;1.33;;
27804;SDS011;15183;51.350;11.102;2022-09-17T06:03:07;10.75;;;2.33;;
27804;SDS011;15183;51.350;11.102;2022-09-17T06:05:35;7.82;;;2.85;;
27804;SDS011;15183;51.350;11.102;2022-09-17T06:08:02;8.52;;;2.58;;
27804;SDS011;15183;51.350;11.102;2022-09-17T06:10:28;9.63;;;3.15;;
27804;SDS011;15183;51.350;11.102;2022-09-17T06:12:58;8.15;;;2.88;;
27804;SDS011;15183;51.350;11.102;2022-09-17T06:15:25;8.63;;;2.63;;
27804;SDS011;15183;51.350;11.102;2022-09-17T06:17:53;9.18;;;2.45;;
27804;SDS011;15183;51.350;11.102;2022-09-17T06:20:19;9.18;;;3.67;;
27804;SDS011;15183;51.350;11.102;2022-09-17T06:22:46;10.35;;;3.05;;
27804;SDS011;15183;51.350;11.102;2022-09-17T06:25:13;8.30;;;2.85;;
27804;SDS011;15183;51.350;11.102;2022-09-17T06:27:39;10.98;;;2.22;;
27804;SDS011;15183;51.350;11.102;2022-09-17T06:30:06;10.23;;;2.80;;
27804;SDS011;15183;51.350;11.102;2022-09-17T06:32:33;8.73;;;2.40;;
27804;SDS011;15183;51.350;11.102;2022-09-17T06:34:59;9.60;;;1.73;;
27804;SDS011;15183;51.350;11.102;2022-09-17T06:37:27;8.80;;;2.00;;
27804;SDS011;15183;51.350;11.102;2022-09-17T06:39:54;6.95;;;2.13;;
27804;SDS011;15183;51.350;11.102;2022-09-17T06:42:21;8.07;;;1.90;;
27804;SDS011;15183;51.350;11.102;2022-09-17T06:44:48;16.98;;;2.30;;
27804;SDS011;15183;51.350;11.102;2022-09-17T06:47:14;6.95;;;2.22;;
27804;SDS011;15183;51.350;11.102;2022-09-17T06:49:41;8.45;;;2.05;;
27804;SDS011;15183;51.350;11.102;2022-09-17T06:52:07;9.18;;;3.30;;
27804;SDS011;15183;51.350;11.102;2022-09-17T06:54:34;11.68;;;3.10;;
27804;SDS011;15183;51.350;11.102;2022-09-17T06:57:00;10.98;;;3.20;;
27804;SDS011;15183;51.350;11.102;2022-09-17T06:59:26;9.02;;;2.67;;
27804;SDS011;15183;51.350;11.102;2022-09-17T07:01:53;8.52;;;2.88;;
27804;SDS011;15183;51.350;11.102;2022-09-17T07:04:19;9.35;;;2.90;;
27804;SDS011;15183;51.350;11.102;2022-09-17T07:06:46;8.80;;;2.60;;
27804;SDS011;15183;51.350;11.102;2022-09-17T07:09:12;10.45;;;2.80;;
27804;SDS011;15183;51.350;11.102;2022-09-17T07:11:39;8.63;;;2.13;;
27804;SDS011;15183;51.350;11.102;2022-09-17T07:14:05;8.18;;;2.60;;
27804;SDS011;15183;51.350;11.102;2022-09-17T07:16:31;8.60;;;2.75;;
27804;SDS011;15183;51.350;11.102;2022-09-17T07:19:00;9.95;;;2.40;;
27804;SDS011;15183;51.350;11.102;2022-09-17T07:21:28;7.43;;;1.67;;
27804;SDS011;15183;51.350;11.102;2022-09-17T07:23:55;8.73;;;1.90;;
27804;SDS011;15183;51.350;11.102;2022-09-17T07:26:22;9.77;;;2.70;;
27804;SDS011;15183;51.350;11.102;2022-09-17T07:28:48;5.72;;;2.28;;
27804;SDS011;15183;51.350;11.102;2022-09-17T07:31:15;11.90;;;2.67;;
27804;SDS011;15183;51.350;11.102;2022-09-17T07:33:42;11.50;;;2.97;;
27804;SDS011;15183;51.350;11.102;2022-09-17T07:36:10;10.20;;;2.50;;
27804;SDS011;15183;51.350;11.102;2022-09-17T07:38:39;8.20;;;3.35;;
27804;SDS011;15183;51.350;11.102;2022-09-17T07:41:06;13.85;;;2.63;;
27804;SDS011;15183;51.350;11.102;2022-09-17T07:43:39;13.57;;;3.28;;
27804;SDS011;15183;51.350;11.102;2022-09-17T07:46:07;13.57;;;2.17;;
27804;SDS011;15183;51.350;11.102;2022-09-17T07:48:40;12.20;;;2.88;;
27804;SDS011;15183;51.350;11.102;2022-09-17T07:51:07;10.13;;;2.75;;
27804;SDS011;15183;51.350;11.102;2022-09-17T07:53:38;7.93;;;2.53;;
27804;SDS011;15183;51.350;11.102;2022-09-17T07:56:05;9.20;;;2.17;;
27804;SDS011;15183;51.350;11.102;2022-09-17T07:58:33;7.00;;;1.70;;
27804;SDS011;15183;51.350;11.102;2022-09-17T08:01:02;7.38;;;1.65;;
27804;SDS011;15183;51.350;11.102;2022-09-17T08:03:30;8.38;;;2.53;;
27804;SDS011;15183;51.350;11.102;2022-09-17T08:06:15;9.38;;;2.20;;
27804;SDS011;15183;51.350;11.102;2022-09-17T08:08:45;9.43;;;1.92;;
27804;SDS011;15183;51.350;11.102;2022-09-17T08:11:13;9.10;;;2.05;;
27804;SDS011;15183;51.350;11.102;2022-09-17T08:13:46;7.93;;;1.98;;
27804;SDS011;15183;51.350;11.102;2022-09-17T08:16:16;7.80;;;2.15;;
27804;SDS011;15183;51.350;11.102;2022-09-17T08:18:44;9.38;;;2.47;;
27804;SDS011;15183;51.350;11.102;2022-09-17T08:21:13;13.27;;;2.28;;
27804;SDS011;15183;51.350;11.102;2022-09-17T08:23:45;9.75;;;2.03;;
27804;SDS011;15183;51.350;11.102;2022-09-17T08:26:15;6.85;;;2.10;;
27804;SDS011;15183;51.350;11.102;2022-09-17T08:28:48;13.68;;;2.45;;
27804;SDS011;15183;51.350;11.102;2022-09-17T08:31:19;12.90;;;2.17;;
27804;SDS011;15183;51.350;11.102;2022-09-17T08:33:47;7.65;;;1.85;;
27804;SDS011;15183;51.350;11.102;2022-09-17T08:36:14;10.95;;;2.45;;
27804;SDS011;15183;51.350;11.102;2022-09-17T08:38:43;10.85;;;2.08;;
27804;SDS011;15183;51.350;11.102;2022-09-17T08:46:59;9.65;;;2.40;;
27804;SDS011;15183;51.350;11.102;2022-09-17T08:49:34;14.07;;;3.13;;
27804;SDS011;15183;51.350;11.102;2022-09-17T08:58:18;16.25;;;2.50;;
27804;SDS011;15183;51.350;11.102;2022-09-17T09:07:01;10.13;;;2.13;;
27804;SDS011;15183;51.350;11.102;2022-09-17T09:09:43;7.15;;;1.92;;
27804;SDS011;15183;51.350;11.102;2022-09-17T09:12:30;16.10;;;2.00;;
27804;SDS011;15183;51.350;11.102;2022-09-17T09:15:01;9.15;;;1.85;;
27804;SDS011;15183;51.350;11.102;2022-09-17T09:17:48;8.30;;;1.70;;
27804;SDS011;15183;51.350;11.102;2022-09-17T09:20:17;7.90;;;1.90;;
27804;SDS011;15183;51.350;11.102;2022-09-17T09:23:01;7.95;;;1.60;;
27804;SDS011;15183;51.350;11.102;2022-09-17T09:25:51;11.07;;;2.15;;
27804;SDS011;15183;51.350;11.102;2022-09-17T09:28:34;7.47;;;2.05;;
27804;SDS011;15183;51.350;11.102;2022-09-17T09:31:21;12.18;;;2.28;;
27804;SDS011;15183;51.350;11.102;2022-09-17T09:34:06;10.18;;;1.85;;
27804;SDS011;15183;51.350;11.102;2022-09-17T09:36:35;7.68;;;1.83;;
27804;SDS011;15183;51.350;11.102;2022-09-17T09:39:06;9.93;;;2.22;;
27804;SDS011;15183;51.350;11.102;2022-09-17T09:41:58;3.65;;;1.40;;
27804;SDS011;15183;51.350;11.102;2022-09-17T09:44:40;8.30;;;1.58;;
27804;SDS011;15183;51.350;11.102;2022-09-17T09:50:19;6.90;;;1.50;;
27804;SDS011;15183;51.350;11.102;2022-09-17T09:53:26;7.82;;;2.40;;
27804;SDS011;15183;51.350;11.102;2022-09-17T09:56:14;6.60;;;1.98;;
27804;SDS011;15183;51.350;11.102;2022-09-17T09:59:15;7.72;;;1.73;;
27804;SDS011;15183;51.350;11.102;2022-09-17T10:01:44;11.05;;;2.28;;
27804;SDS011;15183;51.350;11.102;2022-09-17T10:04:44;9.65;;;2.80;;
27804;SDS011;15183;51.350;11.102;2022-09-17T10:07:05;8.82;;;2.70;;
27804;SDS011;15183;51.350;11.102;2022-09-17T10:09:36;11.98;;;2.42;;
27804;SDS011;15183;51.350;11.102;2022-09-17T10:14:42;8.07;;;2.17;;
27804;SDS011;15183;51.350;11.102;2022-09-17T10:17:14;12.45;;;2.45;;
27804;SDS011;15183;51.350;11.102;2022-09-17T10:24:58;6.22;;;2.33;;
27804;SDS011;15183;51.350;11.102;2022-09-17T10:27:26;6.00;;;3.20;;
27804;SDS011;15183;51.350;11.102;2022-09-17T10:32:40;5.80;;;2.40;;
27804;SDS011;15183;51.350;11.102;2022-09-17T10:37:43;10.52;;;4.68;;
27804;SDS011;15183;51.350;11.102;2022-09-17T10:42:43;9.55;;;2.67;;
27804;SDS011;15183;51.350;11.102;2022-09-17T10:45:27;8.93;;;2.75;;
27804;SDS011;15183;51.350;11.102;2022-09-17T10:47:56;8.05;;;3.38;;
27804;SDS011;15183;51.350;11.102;2022-09-17T10:50:28;9.65;;;3.47;;
27804;SDS011;15183;51.350;11.102;2022-09-17T10:52:58;9.65;;;3.10;;
27804;SDS011;15183;51.350;11.102;2022-09-17T11:04:35;12.98;;;3.70;;
27804;SDS011;15183;51.350;11.102;2022-09-17T11:10:24;6.70;;;3.03;;
27804;SDS011;15183;51.350;11.102;2022-09-17T11:13:22;8.35;;;2.42;;
27804;SDS011;15183;51.350;11.102;2022-09-17T11:25:52;6.97;;;2.38;;
27804;SDS011;15183;51.350;11.102;2022-09-17T11:31:36;4.20;;;1.85;;
27804;SDS011;15183;51.350;11.102;2022-09-17T11:34:44;8.45;;;2.63;;
27804;SDS011;15183;51.350;11.102;2022-09-17T11:37:30;7.13;;;1.40;;
27804;SDS011;15183;51.350;11.102;2022-09-17T11:40:07;5.22;;;1.10;;
27804;SDS011;15183;51.350;11.102;2022-09-17T11:42:48;6.45;;;2.70;;
27804;SDS011;15183;51.350;11.102;2022-09-17T11:45:28;7.07;;;1.75;;
27804;SDS011;15183;51.350;11.102;2022-09-17T11:50:56;4.18;;;0.98;;
27804;SDS011;15183;51.350;11.102;2022-09-17T11:53:52;4.55;;;0.93;;
27804;SDS011;15183;51.350;11.102;2022-09-17T11:56:51;3.72;;;0.90;;
27804;SDS011;15183;51.350;11.102;2022-09-17T11:59:45;4.38;;;1.25;;
27804;SDS011;15183;51.350;11.102;2022-09-17T12:02:41;5.43;;;1.38;;
27804;SDS011;15183;51.350;11.102;2022-09-17T12:05:30;7.43;;;3.67;;
27804;SDS011;15183;51.350;11.102;2022-09-17T12:11:20;3.50;;;1.25;;
27804;SDS011;15183;51.350;11.102;2022-09-17T12:14:21;2.95;;;1.13;;
27804;SDS011;15183;51.350;11.102;2022-09-17T12:16:57;8.82;;;2.20;;
27804;SDS011;15183;51.350;11.102;2022-09-17T12:24:52;6.75;;;1.90;;
27804;SDS011;15183;51.350;11.102;2022-09-17T12:35:32;4.97;;;1.58;;
27804;SDS011;15183;51.350;11.102;2022-09-17T12:46:49;6.95;;;1.45;;
27804;SDS011;15183;51.350;11.102;2022-09-17T12:58:40;9.48;;;1.77;;
27804;SDS011;15183;51.350;11.102;2022-09-17T13:01:24;10.18;;;2.60;;
27804;SDS011;15183;51.350;11.102;2022-09-17T13:10:22;2.55;;;0.85;;
27804;SDS011;15183;51.350;11.102;2022-09-17T13:13:24;3.25;;;1.08;;
27804;SDS011;15183;51.350;11.102;2022-09-17T13:16:15;5.28;;;1.85;;
27804;SDS011;15183;51.350;11.102;2022-09-17T13:19:18;4.32;;;1.90;;
27804;SDS011;15183;51.350;11.102;2022-09-17T13:21:59;3.65;;;2.13;;
27804;SDS011;15183;51.350;11.102;2022-09-17T13:24:31;4.43;;;2.60;;
27804;SDS011;15183;51.350;11.102;2022-09-17T13:26:59;9.68;;;4.13;;
27804;SDS011;15183;51.350;11.102;2022-09-17T13:29:56;5.82;;;1.90;;
27804;SDS011;15183;51.350;11.102;2022-09-17T13:37:35;3.38;;;0.85;;
27804;SDS011;15183;51.350;11.102;2022-09-17T13:40:29;2.50;;;1.13;;
27804;SDS011;15183;51.350;11.102;2022-09-17T13:45:33;2.60;;;0.88;;
27804;SDS011;15183;51.350;11.102;2022-09-17T13:48:26;4.57;;;1.15;;
27804;SDS011;15183;51.350;11.102;2022-09-17T13:54:08;1.80;;;0.63;;
27804;SDS011;15183;51.350;11.102;2022-09-17T13:56:37;1.20;;;0.45;;
27804;SDS011;15183;51.350;11.102;2022-09-17T13:59:15;1.13;;;0.45;;
27804;SDS011;15183;51.350;11.102;2022-09-17T14:01:54;1.38;;;0.63;;
27804;SDS011;15183;51.350;11.102;2022-09-17T14:07:00;2.25;;;0.80;;
27804;SDS011;15183;51.350;11.102;2022-09-17T14:09:49;1.85;;;0.50;;
27804;SDS011;15183;51.350;11.102;2022-09-17T14:16:01;2.08;;;1.10;;
27804;SDS011;15183;51.350;11.102;2022-09-17T14:21:17;1.95;;;0.90;;
27804;SDS011;15183;51.350;11.102;2022-09-17T14:23:55;1.50;;;1.00;;
27804;SDS011;15183;51.350;11.102;2022-09-17T14:26:43;4.88;;;0.93;;
27804;SDS011;15183;51.350;11.102;2022-09-17T14:32:17;1.77;;;0.73;;
27804;SDS011;15183;51.350;11.102;2022-09-17T14:37:51;0.70;;;0.52;;
27804;SDS011;15183;51.350;11.102;2022-09-17T14:40:32;1.98;;;0.60;;
27804;SDS011;15183;51.350;11.102;2022-09-17T14:42:59;1.23;;;0.77;;
27804;SDS011;15183;51.350;11.102;2022-09-17T14:45:31;3.67;;;0.90;;
27804;SDS011;15183;51.350;11.102;2022-09-17T14:48:25;1.52;;;0.63;;
27804;SDS011;15183;51.350;11.102;2022-09-17T14:51:00;2.20;;;0.70;;
27804;SDS011;15183;51.350;11.102;2022-09-17T14:56:35;1.48;;;0.70;;
27804;SDS011;15183;51.350;11.102;2022-09-17T14:59:44;1.00;;;0.60;;
27804;SDS011;15183;51.350;11.102;2022-09-17T15:02:28;2.78;;;0.77;;
27804;SDS011;15183;51.350;11.102;2022-09-17T15:07:49;0.75;;;0.50;;
27804;SDS011;15183;51.350;11.102;2022-09-17T15:10:19;1.52;;;0.65;;
27804;SDS011;15183;51.350;11.102;2022-09-17T15:12:47;4.85;;;0.60;;
27804;SDS011;15183;51.350;11.102;2022-09-17T15:15:19;4.38;;;0.45;;
27804;SDS011;15183;51.350;11.102;2022-09-17T15:17:49;3.03;;;0.85;;
27804;SDS011;15183;51.350;11.102;2022-09-17T15:20:21;2.08;;;0.80;;
27804;SDS011;15183;51.350;11.102;2022-09-17T15:23:27;1.27;;;0.70;;
27804;SDS011;15183;51.350;11.102;2022-09-17T15:25:51;2.95;;;0.85;;
27804;SDS011;15183;51.350;11.102;2022-09-17T15:28:35;1.67;;;0.80;;
27804;SDS011;15183;51.350;11.102;2022-09-17T15:31:10;1.35;;;0.65;;
27804;SDS011;15183;51.350;11.102;2022-09-17T15:33:44;2.38;;;1.08;;
27804;SDS011;15183;51.350;11.102;2022-09-17T15:36:17;2.10;;;0.98;;
27804;SDS011;15183;51.350;11.102;2022-09-17T15:38:52;1.70;;;0.63;;
27804;SDS011;15183;51.350;11.102;2022-09-17T15:41:22;2.85;;;0.93;;
27804;SDS011;15183;51.350;11.102;2022-09-17T15:44:33;1.10;;;0.63;;
27804;SDS011;15183;51.350;11.102;2022-09-17T15:46:52;1.60;;;0.65;;
27804;SDS011;15183;51.350;11.102;2022-09-17T15:49:29;1.58;;;0.70;;
27804;SDS011;15183;51.350;11.102;2022-09-17T15:54:58;0.75;;;0.50;;
27804;SDS011;15183;51.350;11.102;2022-09-17T15:57:26;0.75;;;0.57;;
27804;SDS011;15183;51.350;11.102;2022-09-17T15:59:55;1.88;;;0.68;;
27804;SDS011;15183;51.350;11.102;2022-09-17T16:02:35;1.23;;;0.47;;
27804;SDS011;15183;51.350;11.102;2022-09-17T16:07:41;1.08;;;0.73;;
27804;SDS011;15183;51.350;11.102;2022-09-17T16:10:12;3.40;;;0.63;;
27804;SDS011;15183;51.350;11.102;2022-09-17T16:12:39;2.25;;;0.70;;
27804;SDS011;15183;51.350;11.102;2022-09-17T16:15:06;1.73;;;0.63;;
27804;SDS011;15183;51.350;11.102;2022-09-17T16:22:51;2.83;;;1.75;;
27804;SDS011;15183;51.350;11.102;2022-09-17T16:25:19;2.25;;;0.80;;
27804;SDS011;15183;51.350;11.102;2022-09-17T16:27:50;1.92;;;1.17;;
27804;SDS011;15183;51.350;11.102;2022-09-17T16:30:20;3.78;;;1.10;;
27804;SDS011;15183;51.350;11.102;2022-09-17T16:32:48;1.70;;;1.05;;
27804;SDS011;15183;51.350;11.102;2022-09-17T16:35:16;2.60;;;1.13;;
27804;SDS011;15183;51.350;11.102;2022-09-17T16:37:48;4.80;;;1.20;;
27804;SDS011;15183;51.350;11.102;2022-09-17T16:40:20;1.90;;;1.20;;
27804;SDS011;15183;51.350;11.102;2022-09-17T16:42:48;7.50;;;4.68;;
27804;SDS011;15183;51.350;11.102;2022-09-17T16:45:14;18.67;;;3.65;;
27804;SDS011;15183;51.350;11.102;2022-09-17T16:47:41;3.17;;;1.20;;
27804;SDS011;15183;51.350;11.102;2022-09-17T16:50:09;2.35;;;1.48;;
27804;SDS011;15183;51.350;11.102;2022-09-17T16:52:39;1.73;;;0.90;;
27804;SDS011;15183;51.350;11.102;2022-09-17T16:55:06;2.65;;;1.80;;
27804;SDS011;15183;51.350;11.102;2022-09-17T16:57:36;3.75;;;2.05;;
27804;SDS011;15183;51.350;11.102;2022-09-17T17:00:03;2.00;;;1.52;;
27804;SDS011;15183;51.350;11.102;2022-09-17T17:02:36;3.50;;;2.20;;
27804;SDS011;15183;51.350;11.102;2022-09-17T17:05:03;4.03;;;2.90;;
27804;SDS011;15183;51.350;11.102;2022-09-17T17:07:30;2.55;;;1.90;;
27804;SDS011;15183;51.350;11.102;2022-09-17T17:09:57;1.80;;;1.60;;
27804;SDS011;15183;51.350;11.102;2022-09-17T17:12:26;5.57;;;2.28;;
27804;SDS011;15183;51.350;11.102;2022-09-17T17:14:53;2.05;;;1.60;;
27804;SDS011;15183;51.350;11.102;2022-09-17T17:17:19;3.17;;;1.60;;
27804;SDS011;15183;51.350;11.102;2022-09-17T17:19:46;4.55;;;1.73;;
27804;SDS011;15183;51.350;11.102;2022-09-17T17:22:13;3.92;;;1.60;;
27804;SDS011;15183;51.350;11.102;2022-09-17T17:24:40;3.65;;;1.95;;
27804;SDS011;15183;51.350;11.102;2022-09-17T17:27:07;3.22;;;1.30;;
27804;SDS011;15183;51.350;11.102;2022-09-17T17:29:34;2.17;;;1.38;;
27804;SDS011;15183;51.350;11.102;2022-09-17T17:32:01;2.15;;;1.25;;
27804;SDS011;15183;51.350;11.102;2022-09-17T17:34:29;3.40;;;1.30;;
27804;SDS011;15183;51.350;11.102;2022-09-17T17:36:56;2.78;;;1.05;;
27804;SDS011;15183;51.350;11.102;2022-09-17T17:39:23;2.25;;;1.10;;
27804;SDS011;15183;51.350;11.102;2022-09-17T17:41:49;3.03;;;0.93;;
27804;SDS011;15183;51.350;11.102;2022-09-17T17:44:18;2.63;;;1.50;;
27804;SDS011;15183;51.350;11.102;2022-09-17T17:46:45;2.25;;;0.93;;
27804;SDS011;15183;51.350;11.102;2022-09-17T17:49:11;1.40;;;1.05;;
27804;SDS011;15183;51.350;11.102;2022-09-17T17:51:38;2.85;;;1.48;;
27804;SDS011;15183;51.350;11.102;2022-09-17T17:54:04;3.88;;;1.35;;
27804;SDS011;15183;51.350;11.102;2022-09-17T17:56:31;2.92;;;1.30;;
27804;SDS011;15183;51.350;11.102;2022-09-17T17:58:57;2.72;;;1.20;;
27804;SDS011;15183;51.350;11.102;2022-09-17T18:01:25;1.30;;;0.93;;
27804;SDS011;15183;51.350;11.102;2022-09-17T18:04:01;2.80;;;1.45;;
27804;SDS011;15183;51.350;11.102;2022-09-17T18:06:31;5.53;;;1.90;;
27804;SDS011;15183;51.350;11.102;2022-09-17T18:08:59;3.92;;;1.67;;
27804;SDS011;15183;51.350;11.102;2022-09-17T18:11:26;3.25;;;1.38;;